sensor_id;sensor_type;location;lat;lon;timestamp;P1;durP1;ratioP1;P2;durP2;ratioP2
33912;SDS011;20200;52.084;5.224;2023-02-15T00:01:44;95.1;;;71.41;;
33912;SDS011;20200;52.084;5.224;2023-02-15T00:03:22;98.8;;;71.41;;
33912;SDS011;20200;52.084;5.224;2023-02-15T00:04:58;98.4;;;72.8;;
33912;SDS011;20200;52.084;5.224;2023-02-15T00:06:34;104.2;;;73.3;;
33912;SDS011;20200;52.084;5.224;2023-02-15T00:09:47;98.0;;;71.61;;
33912;SDS011;20200;52.084;5.224;2023-02-15T00:11:39;99.8;;;73.91;;
33912;SDS011;20200;52.084;5.224;2023-02-15T00:13:17;89.4;;;66.1;;
33912;SDS011;20200;52.084;5.224;2023-02-15T00:14:53;88.1;;;65.3;;
33912;SDS011;20200;52.084;5.224;2023-02-15T00:18:08;92.0;;;67.8;;
33912;SDS011;20200;52.084;5.224;2023-02-15T00:19:44;87.9;;;65.5;;
33912;SDS011;20200;52.084;5.224;2023-02-15T00:21:20;80.5;;;62.1;;
33912;SDS011;20200;52.084;5.224;2023-02-15T00:24:34;86.4;;;65.41;;
33912;SDS011;20200;52.084;5.224;2023-02-15T00:26:10;80.7;;;62.6;;
33912;SDS011;20200;52.084;5.224;2023-02-15T00:27:48;87.2;;;65.7;;
33912;SDS011;20200;52.084;5.224;2023-02-15T00:31:03;76.3;;;59.1;;
33912;SDS011;20200;52.084;5.224;2023-02-15T00:32:40;85.0;;;62.7;;
33912;SDS011;20200;52.084;5.224;2023-02-15T00:34:17;85.8;;;63.3;;
33912;SDS011;20200;52.084;5.224;2023-02-15T00:35:56;85.8;;;63.9;;
33912;SDS011;20200;52.084;5.224;2023-02-15T00:39:09;85.1;;;62.7;;
33912;SDS011;20200;52.084;5.224;2023-02-15T00:40:51;82.4;;;61.6;;
33912;SDS011;20200;52.084;5.224;2023-02-15T00:42:28;83.5;;;61.8;;
33912;SDS011;20200;52.084;5.224;2023-02-15T00:45:42;78.3;;;59.8;;
33912;SDS011;20200;52.084;5.224;2023-02-15T00:47:21;85.2;;;62.6;;
33912;SDS011;20200;52.084;5.224;2023-02-15T00:48:57;86.5;;;64.7;;
33912;SDS011;20200;52.084;5.224;2023-02-15T00:50:33;77.8;;;59.5;;
33912;SDS011;20200;52.084;5.224;2023-02-15T00:53:45;78.91;;;58.3;;
33912;SDS011;20200;52.084;5.224;2023-02-15T00:55:22;79.91;;;59.0;;
33912;SDS011;20200;52.084;5.224;2023-02-15T00:56:58;81.7;;;60.1;;
33912;SDS011;20200;52.084;5.224;2023-02-15T01:00:12;80.5;;;61.4;;
33912;SDS011;20200;52.084;5.224;2023-02-15T01:01:49;86.6;;;61.3;;
33912;SDS011;20200;52.084;5.224;2023-02-15T01:03:25;87.5;;;63.9;;
33912;SDS011;20200;52.084;5.224;2023-02-15T01:05:01;86.5;;;63.0;;
33912;SDS011;20200;52.084;5.224;2023-02-15T01:08:14;81.8;;;61.1;;
33912;SDS011;20200;52.084;5.224;2023-02-15T01:09:50;83.7;;;60.5;;
33912;SDS011;20200;52.084;5.224;2023-02-15T01:11:27;84.8;;;62.4;;
33912;SDS011;20200;52.084;5.224;2023-02-15T01:14:40;84.8;;;62.4;;
33912;SDS011;20200;52.084;5.224;2023-02-15T01:16:16;74.2;;;55.9;;
33912;SDS011;20200;52.084;5.224;2023-02-15T01:17:53;77.3;;;58.2;;
33912;SDS011;20200;52.084;5.224;2023-02-15T01:21:09;76.2;;;57.1;;
33912;SDS011;20200;52.084;5.224;2023-02-15T01:22:49;81.2;;;58.1;;
33912;SDS011;20200;52.084;5.224;2023-02-15T01:24:26;80.2;;;58.3;;
33912;SDS011;20200;52.084;5.224;2023-02-15T01:26:02;74.0;;;56.1;;
33912;SDS011;20200;52.084;5.224;2023-02-15T01:29:15;75.2;;;58.9;;
33912;SDS011;20200;52.084;5.224;2023-02-15T01:30:51;77.2;;;59.7;;
33912;SDS011;20200;52.084;5.224;2023-02-15T01:32:28;70.91;;;56.6;;
33912;SDS011;20200;52.084;5.224;2023-02-15T01:35:40;68.1;;;52.4;;
33912;SDS011;20200;52.084;5.224;2023-02-15T01:37:16;72.7;;;55.0;;
33912;SDS011;20200;52.084;5.224;2023-02-15T01:38:52;78.3;;;57.7;;
33912;SDS011;20200;52.084;5.224;2023-02-15T01:42:07;73.2;;;55.4;;
33912;SDS011;20200;52.084;5.224;2023-02-15T01:43:46;69.61;;;54.4;;
33912;SDS011;20200;52.084;5.224;2023-02-15T01:45:26;74.41;;;55.1;;
33912;SDS011;20200;52.084;5.224;2023-02-15T01:47:04;73.11;;;53.4;;
33912;SDS011;20200;52.084;5.224;2023-02-15T01:50:23;69.2;;;53.3;;
33912;SDS011;20200;52.084;5.224;2023-02-15T01:52:05;73.3;;;56.2;;
33912;SDS011;20200;52.084;5.224;2023-02-15T01:53:43;67.8;;;52.2;;
33912;SDS011;20200;52.084;5.224;2023-02-15T01:55:26;88.6;;;63.9;;
33912;SDS011;20200;52.084;5.224;2023-02-15T01:58:52;77.3;;;57.7;;
33912;SDS011;20200;52.084;5.224;2023-02-15T02:00:31;73.3;;;56.6;;
33912;SDS011;20200;52.084;5.224;2023-02-15T02:02:09;73.2;;;54.5;;
33912;SDS011;20200;52.084;5.224;2023-02-15T02:03:51;74.0;;;55.5;;
33912;SDS011;20200;52.084;5.224;2023-02-15T02:07:11;71.2;;;54.4;;
33912;SDS011;20200;52.084;5.224;2023-02-15T02:08:50;78.0;;;56.5;;
33912;SDS011;20200;52.084;5.224;2023-02-15T02:10:28;69.5;;;52.7;;
33912;SDS011;20200;52.084;5.224;2023-02-15T02:12:04;70.8;;;52.3;;
33912;SDS011;20200;52.084;5.224;2023-02-15T02:15:20;64.5;;;51.2;;
33912;SDS011;20200;52.084;5.224;2023-02-15T02:17:06;63.6;;;50.7;;
33912;SDS011;20200;52.084;5.224;2023-02-15T02:18:56;65.3;;;49.8;;
33912;SDS011;20200;52.084;5.224;2023-02-15T02:20:52;64.5;;;50.6;;
33912;SDS011;20200;52.084;5.224;2023-02-15T02:23:16;64.0;;;50.6;;
33912;SDS011;20200;52.084;5.224;2023-02-15T02:25:46;65.2;;;51.7;;
33912;SDS011;20200;52.084;5.224;2023-02-15T02:29:19;83.3;;;59.4;;
33912;SDS011;20200;52.084;5.224;2023-02-15T02:33:55;76.11;;;57.7;;
33912;SDS011;20200;52.084;5.224;2023-02-15T02:35:42;69.2;;;54.6;;
33912;SDS011;20200;52.084;5.224;2023-02-15T02:37:27;93.7;;;64.5;;
33912;SDS011;20200;52.084;5.224;2023-02-15T02:39:13;88.8;;;63.8;;
33912;SDS011;20200;52.084;5.224;2023-02-15T02:42:54;77.8;;;58.2;;
33912;SDS011;20200;52.084;5.224;2023-02-15T02:44:39;70.41;;;54.3;;
33912;SDS011;20200;52.084;5.224;2023-02-15T02:46:20;70.41;;;54.3;;
33912;SDS011;20200;52.084;5.224;2023-02-15T02:48:02;74.11;;;56.0;;
33912;SDS011;20200;52.084;5.224;2023-02-15T02:49:43;67.0;;;52.4;;
33912;SDS011;20200;52.084;5.224;2023-02-15T02:52:58;65.0;;;51.8;;
33912;SDS011;20200;52.084;5.224;2023-02-15T02:54:35;80.11;;;59.2;;
33912;SDS011;20200;52.084;5.224;2023-02-15T02:56:13;70.91;;;54.4;;
33912;SDS011;20200;52.084;5.224;2023-02-15T02:59:41;93.1;;;65.5;;
33912;SDS011;20200;52.084;5.224;2023-02-15T03:01:24;87.4;;;62.1;;
33912;SDS011;20200;52.084;5.224;2023-02-15T03:03:09;88.1;;;64.1;;
33912;SDS011;20200;52.084;5.224;2023-02-15T03:04:59;71.7;;;54.6;;
33912;SDS011;20200;52.084;5.224;2023-02-15T03:06:45;95.6;;;66.91;;
33912;SDS011;20200;52.084;5.224;2023-02-15T03:08:30;91.5;;;65.41;;
33912;SDS011;20200;52.084;5.224;2023-02-15T03:11:49;96.2;;;66.91;;
33912;SDS011;20200;52.084;5.224;2023-02-15T03:13:26;86.2;;;61.9;;
33912;SDS011;20200;52.084;5.224;2023-02-15T03:15:04;91.3;;;64.6;;
33912;SDS011;20200;52.084;5.224;2023-02-15T03:18:35;97.1;;;65.2;;
33912;SDS011;20200;52.084;5.224;2023-02-15T03:20:14;88.8;;;63.0;;
33912;SDS011;20200;52.084;5.224;2023-02-15T03:22:03;89.3;;;63.5;;
33912;SDS011;20200;52.084;5.224;2023-02-15T03:23:45;86.6;;;61.5;;
33912;SDS011;20200;52.084;5.224;2023-02-15T03:25:23;73.0;;;54.9;;
33912;SDS011;20200;52.084;5.224;2023-02-15T03:28:46;70.0;;;53.2;;
33912;SDS011;20200;52.084;5.224;2023-02-15T03:30:25;69.8;;;54.3;;
33912;SDS011;20200;52.084;5.224;2023-02-15T03:32:05;69.41;;;53.5;;
33912;SDS011;20200;52.084;5.224;2023-02-15T03:33:49;80.7;;;60.5;;
33912;SDS011;20200;52.084;5.224;2023-02-15T03:37:22;108.5;;;70.7;;
33912;SDS011;20200;52.084;5.224;2023-02-15T03:39:07;101.2;;;66.6;;
33912;SDS011;20200;52.084;5.224;2023-02-15T03:41:21;103.5;;;72.41;;
33912;SDS011;20200;52.084;5.224;2023-02-15T03:43:03;81.0;;;60.1;;
33912;SDS011;20200;52.084;5.224;2023-02-15T03:44:49;78.0;;;59.3;;
33912;SDS011;20200;52.084;5.224;2023-02-15T03:46:35;77.3;;;58.5;;
33912;SDS011;20200;52.084;5.224;2023-02-15T03:48:18;76.91;;;56.7;;
33912;SDS011;20200;52.084;5.224;2023-02-15T03:51:41;75.91;;;56.7;;
33912;SDS011;20200;52.084;5.224;2023-02-15T03:53:21;80.0;;;55.5;;
33912;SDS011;20200;52.084;5.224;2023-02-15T03:55:01;79.5;;;58.2;;
33912;SDS011;20200;52.084;5.224;2023-02-15T03:56:38;75.8;;;56.5;;
33912;SDS011;20200;52.084;5.224;2023-02-15T04:02:26;105.1;;;70.5;;
33912;SDS011;20200;52.084;5.224;2023-02-15T04:04:14;102.9;;;68.0;;
33912;SDS011;20200;52.084;5.224;2023-02-15T04:05:55;117.1;;;75.91;;
33912;SDS011;20200;52.084;5.224;2023-02-15T04:07:31;106.7;;;71.8;;
33912;SDS011;20200;52.084;5.224;2023-02-15T04:10:56;105.5;;;70.91;;
33912;SDS011;20200;52.084;5.224;2023-02-15T04:12:42;92.7;;;65.1;;
33912;SDS011;20200;52.084;5.224;2023-02-15T04:16:06;101.6;;;68.91;;
33912;SDS011;20200;52.084;5.224;2023-02-15T04:17:43;106.4;;;70.91;;
33912;SDS011;20200;52.084;5.224;2023-02-15T04:25:18;76.8;;;56.8;;
33912;SDS011;20200;52.084;5.224;2023-02-15T04:26:56;78.41;;;58.6;;
33912;SDS011;20200;52.084;5.224;2023-02-15T04:28:33;83.1;;;60.1;;
33912;SDS011;20200;52.084;5.224;2023-02-15T04:30:10;85.3;;;60.2;;
33912;SDS011;20200;52.084;5.224;2023-02-15T04:33:25;85.5;;;60.1;;
33912;SDS011;20200;52.084;5.224;2023-02-15T04:35:02;94.5;;;65.5;;
33912;SDS011;20200;52.084;5.224;2023-02-15T04:36:39;93.1;;;63.5;;
33912;SDS011;20200;52.084;5.224;2023-02-15T04:39:52;92.9;;;63.8;;
33912;SDS011;20200;52.084;5.224;2023-02-15T04:41:29;101.3;;;68.41;;
33912;SDS011;20200;52.084;5.224;2023-02-15T04:43:05;104.0;;;68.41;;
33912;SDS011;20200;52.084;5.224;2023-02-15T04:44:41;108.2;;;72.3;;
33912;SDS011;20200;52.084;5.224;2023-02-15T04:47:55;108.9;;;72.8;;
33912;SDS011;20200;52.084;5.224;2023-02-15T04:49:31;107.0;;;71.5;;
33912;SDS011;20200;52.084;5.224;2023-02-15T04:51:07;104.1;;;71.5;;
33912;SDS011;20200;52.084;5.224;2023-02-15T04:54:20;108.3;;;72.0;;
33912;SDS011;20200;52.084;5.224;2023-02-15T04:55:56;89.5;;;64.2;;
33912;SDS011;20200;52.084;5.224;2023-02-15T04:57:32;102.0;;;70.7;;
33912;SDS011;20200;52.084;5.224;2023-02-15T05:00:46;103.7;;;67.41;;
33912;SDS011;20200;52.084;5.224;2023-02-15T05:02:22;103.0;;;68.61;;
33912;SDS011;20200;52.084;5.224;2023-02-15T05:03:58;117.9;;;78.2;;
33912;SDS011;20200;52.084;5.224;2023-02-15T05:07:10;116.6;;;75.3;;
33912;SDS011;20200;52.084;5.224;2023-02-15T05:08:46;106.6;;;69.91;;
33912;SDS011;20200;52.084;5.224;2023-02-15T05:10:22;104.7;;;68.91;;
33912;SDS011;20200;52.084;5.224;2023-02-15T05:11:59;88.0;;;62.4;;
33912;SDS011;20200;52.084;5.224;2023-02-15T05:15:11;114.7;;;76.5;;
33912;SDS011;20200;52.084;5.224;2023-02-15T05:16:47;119.5;;;75.91;;
33912;SDS011;20200;52.084;5.224;2023-02-15T05:18:23;102.9;;;70.5;;
33912;SDS011;20200;52.084;5.224;2023-02-15T05:21:35;122.7;;;78.5;;
33912;SDS011;20200;52.084;5.224;2023-02-15T05:23:11;92.1;;;63.3;;
33912;SDS011;20200;52.084;5.224;2023-02-15T05:28:58;107.3;;;70.5;;
33912;SDS011;20200;52.084;5.224;2023-02-15T05:32:12;90.7;;;62.7;;
33912;SDS011;20200;52.084;5.224;2023-02-15T05:33:49;97.3;;;66.6;;
33912;SDS011;20200;52.084;5.224;2023-02-15T05:35:25;78.61;;;57.7;;
33912;SDS011;20200;52.084;5.224;2023-02-15T05:37:02;91.6;;;63.2;;
33912;SDS011;20200;52.084;5.224;2023-02-15T05:40:15;98.3;;;65.2;;
33912;SDS011;20200;52.084;5.224;2023-02-15T05:41:51;112.1;;;70.8;;
33912;SDS011;20200;52.084;5.224;2023-02-15T05:43:27;95.1;;;65.3;;
33912;SDS011;20200;52.084;5.224;2023-02-15T05:46:42;100.4;;;68.7;;
33912;SDS011;20200;52.084;5.224;2023-02-15T05:48:19;100.7;;;68.3;;
33912;SDS011;20200;52.084;5.224;2023-02-15T05:49:58;107.9;;;70.5;;
33912;SDS011;20200;52.084;5.224;2023-02-15T05:53:10;120.3;;;76.11;;
33912;SDS011;20200;52.084;5.224;2023-02-15T05:54:46;120.8;;;78.8;;
33912;SDS011;20200;52.084;5.224;2023-02-15T05:56:22;120.7;;;77.41;;
33912;SDS011;20200;52.084;5.224;2023-02-15T05:57:59;115.9;;;75.11;;
33912;SDS011;20200;52.084;5.224;2023-02-15T06:01:11;108.3;;;70.41;;
33912;SDS011;20200;52.084;5.224;2023-02-15T06:02:50;125.4;;;80.0;;
33912;SDS011;20200;52.084;5.224;2023-02-15T06:04:26;123.8;;;77.41;;
33912;SDS011;20200;52.084;5.224;2023-02-15T06:07:42;121.1;;;76.2;;
33912;SDS011;20200;52.084;5.224;2023-02-15T06:09:19;100.0;;;68.3;;
33912;SDS011;20200;52.084;5.224;2023-02-15T06:10:56;106.7;;;71.0;;
33912;SDS011;20200;52.084;5.224;2023-02-15T06:14:08;116.6;;;74.61;;
33912;SDS011;20200;52.084;5.224;2023-02-15T06:15:44;112.5;;;73.0;;
33912;SDS011;20200;52.084;5.224;2023-02-15T06:17:21;117.1;;;75.0;;
33912;SDS011;20200;52.084;5.224;2023-02-15T06:18:59;117.1;;;75.0;;
33912;SDS011;20200;52.084;5.224;2023-02-15T06:22:13;128.81;;;79.3;;
33912;SDS011;20200;52.084;5.224;2023-02-15T06:23:50;126.5;;;76.91;;
33912;SDS011;20200;52.084;5.224;2023-02-15T06:25:26;118.0;;;74.8;;
33912;SDS011;20200;52.084;5.224;2023-02-15T06:28:38;108.1;;;71.41;;
33912;SDS011;20200;52.084;5.224;2023-02-15T06:30:14;112.3;;;74.8;;
33912;SDS011;20200;52.084;5.224;2023-02-15T06:31:50;124.5;;;79.41;;
33912;SDS011;20200;52.084;5.224;2023-02-15T06:35:03;117.7;;;75.61;;
33912;SDS011;20200;52.084;5.224;2023-02-15T06:36:40;121.3;;;79.3;;
33912;SDS011;20200;52.084;5.224;2023-02-15T06:38:17;114.3;;;76.2;;
33912;SDS011;20200;52.084;5.224;2023-02-15T06:39:53;117.9;;;76.41;;
33912;SDS011;20200;52.084;5.224;2023-02-15T06:43:05;134.1;;;81.91;;
33912;SDS011;20200;52.084;5.224;2023-02-15T06:44:41;130.1;;;79.11;;
33912;SDS011;20200;52.084;5.224;2023-02-15T06:46:18;136.71;;;84.1;;
33912;SDS011;20200;52.084;5.224;2023-02-15T06:49:30;136.1;;;83.7;;
33912;SDS011;20200;52.084;5.224;2023-02-15T06:51:06;122.8;;;78.8;;
33912;SDS011;20200;52.084;5.224;2023-02-15T06:52:42;126.5;;;81.5;;
33912;SDS011;20200;52.084;5.224;2023-02-15T06:55:59;128.7;;;80.61;;
33912;SDS011;20200;52.084;5.224;2023-02-15T06:57:37;119.7;;;75.5;;
33912;SDS011;20200;52.084;5.224;2023-02-15T06:59:13;118.2;;;77.2;;
33912;SDS011;20200;52.084;5.224;2023-02-15T07:00:49;119.7;;;74.7;;
33912;SDS011;20200;52.084;5.224;2023-02-15T07:04:03;119.7;;;75.2;;
33912;SDS011;20200;52.084;5.224;2023-02-15T07:05:39;135.1;;;84.3;;
33912;SDS011;20200;52.084;5.224;2023-02-15T07:07:15;121.9;;;79.2;;
33912;SDS011;20200;52.084;5.224;2023-02-15T07:10:28;136.31;;;88.2;;
33912;SDS011;20200;52.084;5.224;2023-02-15T07:13:09;133.81;;;86.8;;
33912;SDS011;20200;52.084;5.224;2023-02-15T07:14:45;128.7;;;82.5;;
33912;SDS011;20200;52.084;5.224;2023-02-15T07:16:21;126.9;;;80.0;;
33912;SDS011;20200;52.084;5.224;2023-02-15T07:17:58;129.5;;;82.3;;
33912;SDS011;20200;52.084;5.224;2023-02-15T07:19:33;128.7;;;81.41;;
33912;SDS011;20200;52.084;5.224;2023-02-15T07:22:46;130.6;;;83.9;;
33912;SDS011;20200;52.084;5.224;2023-02-15T07:24:23;135.6;;;85.0;;
33912;SDS011;20200;52.084;5.224;2023-02-15T07:25:59;127.9;;;83.0;;
33912;SDS011;20200;52.084;5.224;2023-02-15T07:29:13;128.31;;;83.0;;
33912;SDS011;20200;52.084;5.224;2023-02-15T07:30:49;128.9;;;83.1;;
33912;SDS011;20200;52.084;5.224;2023-02-15T07:32:27;122.0;;;79.41;;
33912;SDS011;20200;52.084;5.224;2023-02-15T07:35:46;127.6;;;81.2;;
33912;SDS011;20200;52.084;5.224;2023-02-15T07:37:23;125.4;;;80.5;;
33912;SDS011;20200;52.084;5.224;2023-02-15T07:39:00;137.71;;;87.5;;
33912;SDS011;20200;52.084;5.224;2023-02-15T07:40:36;143.0;;;89.9;;
33912;SDS011;20200;52.084;5.224;2023-02-15T07:43:49;144.21;;;91.2;;
33912;SDS011;20200;52.084;5.224;2023-02-15T07:45:25;146.71;;;91.6;;
33912;SDS011;20200;52.084;5.224;2023-02-15T07:47:01;122.2;;;79.7;;
33912;SDS011;20200;52.084;5.224;2023-02-15T07:50:15;129.2;;;83.3;;
33912;SDS011;20200;52.084;5.224;2023-02-15T07:51:52;138.9;;;88.3;;
33912;SDS011;20200;52.084;5.224;2023-02-15T07:53:29;129.4;;;85.2;;
33912;SDS011;20200;52.084;5.224;2023-02-15T07:55:06;119.2;;;80.7;;
33912;SDS011;20200;52.084;5.224;2023-02-15T07:58:19;124.1;;;82.3;;
33912;SDS011;20200;52.084;5.224;2023-02-15T07:59:56;137.21;;;87.8;;
33912;SDS011;20200;52.084;5.224;2023-02-15T08:01:33;125.8;;;84.4;;
33912;SDS011;20200;52.084;5.224;2023-02-15T08:04:50;130.81;;;83.8;;
33912;SDS011;20200;52.084;5.224;2023-02-15T08:06:27;117.8;;;78.5;;
33912;SDS011;20200;52.084;5.224;2023-02-15T08:08:06;117.6;;;81.8;;
33912;SDS011;20200;52.084;5.224;2023-02-15T08:09:43;128.7;;;85.3;;
33912;SDS011;20200;52.084;5.224;2023-02-15T08:13:07;115.5;;;76.7;;
33912;SDS011;20200;52.084;5.224;2023-02-15T08:14:43;116.9;;;79.8;;
33912;SDS011;20200;52.084;5.224;2023-02-15T08:16:21;135.7;;;87.5;;
33912;SDS011;20200;52.084;5.224;2023-02-15T08:19:36;131.2;;;86.1;;
33912;SDS011;20200;52.084;5.224;2023-02-15T08:21:13;123.0;;;82.7;;
33912;SDS011;20200;52.084;5.224;2023-02-15T08:22:49;125.3;;;83.1;;
33912;SDS011;20200;52.084;5.224;2023-02-15T08:24:26;121.6;;;82.6;;
33912;SDS011;20200;52.084;5.224;2023-02-15T08:27:40;115.6;;;77.61;;
33912;SDS011;20200;52.084;5.224;2023-02-15T08:29:18;121.6;;;82.1;;
33912;SDS011;20200;52.084;5.224;2023-02-15T08:31:03;122.9;;;81.2;;
33912;SDS011;20200;52.084;5.224;2023-02-15T08:34:17;123.7;;;80.61;;
33912;SDS011;20200;52.084;5.224;2023-02-15T08:35:55;119.5;;;75.8;;
33912;SDS011;20200;52.084;5.224;2023-02-15T08:37:31;121.4;;;80.41;;
33912;SDS011;20200;52.084;5.224;2023-02-15T08:39:07;114.0;;;77.3;;
33912;SDS011;20200;52.084;5.224;2023-02-15T08:42:20;121.2;;;80.3;;
33912;SDS011;20200;52.084;5.224;2023-02-15T08:43:57;121.5;;;79.91;;
33912;SDS011;20200;52.084;5.224;2023-02-15T08:45:36;123.2;;;79.3;;
33912;SDS011;20200;52.084;5.224;2023-02-15T08:48:48;115.4;;;78.41;;
33912;SDS011;20200;52.084;5.224;2023-02-15T08:50:25;113.9;;;79.7;;
33912;SDS011;20200;52.084;5.224;2023-02-15T08:52:02;113.3;;;77.5;;
33912;SDS011;20200;52.084;5.224;2023-02-15T08:55:16;105.2;;;73.8;;
33912;SDS011;20200;52.084;5.224;2023-02-15T08:56:52;110.3;;;76.7;;
33912;SDS011;20200;52.084;5.224;2023-02-15T08:58:28;111.0;;;77.8;;
33912;SDS011;20200;52.084;5.224;2023-02-15T09:00:06;106.2;;;74.61;;
33912;SDS011;20200;52.084;5.224;2023-02-15T09:03:19;104.4;;;75.2;;
33912;SDS011;20200;52.084;5.224;2023-02-15T09:04:56;110.6;;;75.5;;
33912;SDS011;20200;52.084;5.224;2023-02-15T09:06:32;106.1;;;74.61;;
33912;SDS011;20200;52.084;5.224;2023-02-15T09:09:45;106.0;;;75.11;;
33912;SDS011;20200;52.084;5.224;2023-02-15T09:11:23;103.8;;;72.7;;
33912;SDS011;20200;52.084;5.224;2023-02-15T09:13:01;104.4;;;72.5;;
33912;SDS011;20200;52.084;5.224;2023-02-15T09:14:38;104.3;;;74.0;;
33912;SDS011;20200;52.084;5.224;2023-02-15T09:17:53;101.9;;;70.5;;
33912;SDS011;20200;52.084;5.224;2023-02-15T09:19:29;103.8;;;72.7;;
33912;SDS011;20200;52.084;5.224;2023-02-15T09:21:07;104.3;;;73.61;;
33912;SDS011;20200;52.084;5.224;2023-02-15T09:24:21;101.6;;;73.41;;
33912;SDS011;20200;52.084;5.224;2023-02-15T09:26:01;99.3;;;71.8;;
33912;SDS011;20200;52.084;5.224;2023-02-15T09:27:39;98.4;;;71.61;;
33912;SDS011;20200;52.084;5.224;2023-02-15T09:29:15;95.0;;;68.8;;
33912;SDS011;20200;52.084;5.224;2023-02-15T09:32:29;100.5;;;71.41;;
33912;SDS011;20200;52.084;5.224;2023-02-15T09:34:05;96.9;;;69.41;;
33912;SDS011;20200;52.084;5.224;2023-02-15T09:35:41;97.4;;;70.3;;
33912;SDS011;20200;52.084;5.224;2023-02-15T09:38:54;93.9;;;67.91;;
33912;SDS011;20200;52.084;5.224;2023-02-15T09:40:33;95.5;;;69.2;;
33912;SDS011;20200;52.084;5.224;2023-02-15T09:45:14;91.9;;;66.6;;
33912;SDS011;20200;52.084;5.224;2023-02-15T09:47:21;97.2;;;69.5;;
33912;SDS011;20200;52.084;5.224;2023-02-15T09:49:15;89.2;;;65.5;;
33912;SDS011;20200;52.084;5.224;2023-02-15T09:51:07;91.6;;;66.5;;
33912;SDS011;20200;52.084;5.224;2023-02-15T09:53:03;91.1;;;66.2;;
33912;SDS011;20200;52.084;5.224;2023-02-15T09:55:00;92.4;;;66.2;;
33912;SDS011;20200;52.084;5.224;2023-02-15T09:56:52;88.5;;;65.1;;
33912;SDS011;20200;52.084;5.224;2023-02-15T09:58:35;91.6;;;66.3;;
33912;SDS011;20200;52.084;5.224;2023-02-15T10:02:18;84.1;;;61.3;;
33912;SDS011;20200;52.084;5.224;2023-02-15T10:04:15;89.5;;;63.9;;
33912;SDS011;20200;52.084;5.224;2023-02-15T10:06:09;88.1;;;64.91;;
33912;SDS011;20200;52.084;5.224;2023-02-15T10:08:06;88.1;;;63.9;;
33912;SDS011;20200;52.084;5.224;2023-02-15T10:10:28;88.2;;;63.5;;
33912;SDS011;20200;52.084;5.224;2023-02-15T10:12:22;94.0;;;66.2;;
33912;SDS011;20200;52.084;5.224;2023-02-15T10:14:17;90.9;;;65.8;;
33912;SDS011;20200;52.084;5.224;2023-02-15T10:16:12;87.9;;;64.5;;
33912;SDS011;20200;52.084;5.224;2023-02-15T10:18:18;91.6;;;66.2;;
33912;SDS011;20200;52.084;5.224;2023-02-15T10:20:53;84.4;;;62.0;;
33912;SDS011;20200;52.084;5.224;2023-02-15T10:22:37;86.8;;;62.5;;
33912;SDS011;20200;52.084;5.224;2023-02-15T10:24:31;85.5;;;62.1;;
33912;SDS011;20200;52.084;5.224;2023-02-15T10:26:37;88.1;;;62.2;;
33912;SDS011;20200;52.084;5.224;2023-02-15T10:28:22;80.3;;;61.7;;
33912;SDS011;20200;52.084;5.224;2023-02-15T10:30:07;81.61;;;61.5;;
33912;SDS011;20200;52.084;5.224;2023-02-15T10:33:32;80.61;;;59.7;;
33912;SDS011;20200;52.084;5.224;2023-02-15T10:35:16;80.41;;;59.3;;
33912;SDS011;20200;52.084;5.224;2023-02-15T10:37:05;77.91;;;58.7;;
33912;SDS011;20200;52.084;5.224;2023-02-15T10:39:56;84.2;;;59.4;;
33912;SDS011;20200;52.084;5.224;2023-02-15T10:41:44;79.41;;;58.7;;
33912;SDS011;20200;52.084;5.224;2023-02-15T10:43:35;78.41;;;58.2;;
33912;SDS011;20200;52.084;5.224;2023-02-15T10:45:28;75.41;;;57.3;;
33912;SDS011;20200;52.084;5.224;2023-02-15T10:47:16;78.11;;;57.9;;
33912;SDS011;20200;52.084;5.224;2023-02-15T10:49:22;75.61;;;58.9;;
33912;SDS011;20200;52.084;5.224;2023-02-15T10:51:44;74.5;;;56.0;;
33912;SDS011;20200;52.084;5.224;2023-02-15T10:53:39;76.7;;;57.6;;
33912;SDS011;20200;52.084;5.224;2023-02-15T10:56:00;74.8;;;56.7;;
33912;SDS011;20200;52.084;5.224;2023-02-15T10:57:49;75.61;;;55.8;;
33912;SDS011;20200;52.084;5.224;2023-02-15T10:59:49;74.41;;;57.0;;
33912;SDS011;20200;52.084;5.224;2023-02-15T11:01:41;77.3;;;57.9;;
33912;SDS011;20200;52.084;5.224;2023-02-15T11:03:30;78.5;;;58.4;;
33912;SDS011;20200;52.084;5.224;2023-02-15T11:07:12;78.3;;;57.3;;
33912;SDS011;20200;52.084;5.224;2023-02-15T11:08:55;75.0;;;57.6;;
33912;SDS011;20200;52.084;5.224;2023-02-15T11:10:37;77.11;;;58.0;;
33912;SDS011;20200;52.084;5.224;2023-02-15T11:12:20;78.61;;;56.6;;
33912;SDS011;20200;52.084;5.224;2023-02-15T11:14:02;77.61;;;56.7;;
33912;SDS011;20200;52.084;5.224;2023-02-15T11:17:33;76.41;;;56.8;;
33912;SDS011;20200;52.084;5.224;2023-02-15T11:19:15;76.41;;;57.0;;
33912;SDS011;20200;52.084;5.224;2023-02-15T11:20:59;83.0;;;57.7;;
33912;SDS011;20200;52.084;5.224;2023-02-15T11:22:39;79.61;;;58.2;;
33912;SDS011;20200;52.084;5.224;2023-02-15T11:25:58;75.7;;;57.4;;
33912;SDS011;20200;52.084;5.224;2023-02-15T11:27:37;76.7;;;56.1;;
33912;SDS011;20200;52.084;5.224;2023-02-15T11:29:18;77.91;;;56.8;;
33912;SDS011;20200;52.084;5.224;2023-02-15T11:31:01;77.8;;;55.6;;
33912;SDS011;20200;52.084;5.224;2023-02-15T11:32:50;75.5;;;56.0;;
33912;SDS011;20200;52.084;5.224;2023-02-15T11:36:12;77.5;;;56.1;;
33912;SDS011;20200;52.084;5.224;2023-02-15T11:37:54;75.91;;;56.1;;
33912;SDS011;20200;52.084;5.224;2023-02-15T11:39:35;80.5;;;56.9;;
33912;SDS011;20200;52.084;5.224;2023-02-15T11:41:13;73.2;;;54.8;;
33912;SDS011;20200;52.084;5.224;2023-02-15T11:44:37;76.2;;;56.2;;
33912;SDS011;20200;52.084;5.224;2023-02-15T11:46:19;74.11;;;55.9;;
33912;SDS011;20200;52.084;5.224;2023-02-15T11:47:56;75.5;;;54.5;;
33912;SDS011;20200;52.084;5.224;2023-02-15T11:49:34;75.3;;;55.4;;
33912;SDS011;20200;52.084;5.224;2023-02-15T11:52:54;77.3;;;56.0;;
33912;SDS011;20200;52.084;5.224;2023-02-15T11:54:36;72.61;;;54.3;;
33912;SDS011;20200;52.084;5.224;2023-02-15T11:56:18;74.0;;;55.1;;
33912;SDS011;20200;52.084;5.224;2023-02-15T11:57:59;75.8;;;56.0;;
33912;SDS011;20200;52.084;5.224;2023-02-15T12:01:24;73.8;;;54.6;;
33912;SDS011;20200;52.084;5.224;2023-02-15T12:03:09;73.5;;;55.6;;
33912;SDS011;20200;52.084;5.224;2023-02-15T12:04:52;78.8;;;57.6;;
33912;SDS011;20200;52.084;5.224;2023-02-15T12:06:33;75.91;;;55.2;;
33912;SDS011;20200;52.084;5.224;2023-02-15T12:08:15;76.3;;;55.1;;
33912;SDS011;20200;52.084;5.224;2023-02-15T12:11:39;72.2;;;54.0;;
33912;SDS011;20200;52.084;5.224;2023-02-15T12:13:17;71.3;;;53.8;;
33912;SDS011;20200;52.084;5.224;2023-02-15T12:14:56;72.41;;;54.4;;
33912;SDS011;20200;52.084;5.224;2023-02-15T12:18:20;75.3;;;55.3;;
33912;SDS011;20200;52.084;5.224;2023-02-15T12:20:20;76.11;;;54.9;;
33912;SDS011;20200;52.084;5.224;2023-02-15T12:22:04;73.2;;;55.5;;
33912;SDS011;20200;52.084;5.224;2023-02-15T12:23:42;75.61;;;54.8;;
33912;SDS011;20200;52.084;5.224;2023-02-15T12:25:26;74.41;;;54.7;;
33912;SDS011;20200;52.084;5.224;2023-02-15T12:27:13;73.41;;;54.3;;
33912;SDS011;20200;52.084;5.224;2023-02-15T12:30:34;73.61;;;55.5;;
33912;SDS011;20200;52.084;5.224;2023-02-15T12:32:16;75.61;;;56.4;;
33912;SDS011;20200;52.084;5.224;2023-02-15T12:33:55;72.8;;;55.1;;
33912;SDS011;20200;52.084;5.224;2023-02-15T12:35:34;73.5;;;55.8;;
33912;SDS011;20200;52.084;5.224;2023-02-15T12:39:25;77.61;;;56.5;;
33912;SDS011;20200;52.084;5.224;2023-02-15T12:41:03;79.2;;;56.7;;
33912;SDS011;20200;52.084;5.224;2023-02-15T12:42:57;76.3;;;56.3;;
33912;SDS011;20200;52.084;5.224;2023-02-15T12:44:35;78.0;;;56.2;;
33912;SDS011;20200;52.084;5.224;2023-02-15T12:46:13;73.2;;;55.1;;